sensor_id;sensor_type;location;lat;lon;timestamp;pressure;altitude;pressure_sealevel;temperature;humidity
20455;BME280;10386;54.314;10.022;2024-03-25T00:01:34;99802.22;;;6.51;100.00
20455;BME280;10386;54.314;10.022;2024-03-25T00:04:00;99811.06;;;6.53;100.00
20455;BME280;10386;54.314;10.022;2024-03-25T00:06:25;99815.56;;;6.53;100.00
20455;BME280;10386;54.314;10.022;2024-03-25T00:08:52;99827.34;;;6.52;100.00
20455;BME280;10386;54.314;10.022;2024-03-25T00:11:18;99829.19;;;6.51;100.00
20455;BME280;10386;54.314;10.022;2024-03-25T00:13:43;99829.28;;;6.50;100.00
20455;BME280;10386;54.314;10.022;2024-03-25T00:16:09;99839.97;;;6.51;100.00
20455;BME280;10386;54.314;10.022;2024-03-25T00:18:35;99842.00;;;6.48;100.00
20455;BME280;10386;54.314;10.022;2024-03-25T00:21:01;99840.41;;;6.45;100.00
20455;BME280;10386;54.314;10.022;2024-03-25T00:23:27;99854.72;;;6.46;100.00
20455;BME280;10386;54.314;10.022;2024-03-25T00:25:53;99853.75;;;6.47;100.00
20455;BME280;10386;54.314;10.022;2024-03-25T00:28:19;99859.16;;;6.47;100.00
20455;BME280;10386;54.314;10.022;2024-03-25T00:30:45;99864.31;;;6.50;100.00
20455;BME280;10386;54.314;10.022;2024-03-25T00:33:11;99863.03;;;6.43;100.00
20455;BME280;10386;54.314;10.022;2024-03-25T00:35:37;99866.16;;;6.37;100.00
20455;BME280;10386;54.314;10.022;2024-03-25T00:38:03;99865.59;;;6.32;100.00
20455;BME280;10386;54.314;10.022;2024-03-25T00:40:30;99871.09;;;6.30;100.00
20455;BME280;10386;54.314;10.022;2024-03-25T00:42:56;99872.25;;;6.26;100.00
20455;BME280;10386;54.314;10.022;2024-03-25T00:45:22;99878.75;;;6.24;100.00
20455;BME280;10386;54.314;10.022;2024-03-25T00:47:50;99891.00;;;6.15;100.00
20455;BME280;10386;54.314;10.022;2024-03-25T00:50:17;99889.50;;;6.11;100.00
20455;BME280;10386;54.314;10.022;2024-03-25T00:52:43;99894.13;;;6.09;100.00
20455;BME280;10386;54.314;10.022;2024-03-25T00:55:08;99894.25;;;6.08;100.00
20455;BME280;10386;54.314;10.022;2024-03-25T00:57:36;99905.84;;;6.08;100.00
20455;BME280;10386;54.314;10.022;2024-03-25T01:00:02;99901.34;;;6.09;100.00
20455;BME280;10386;54.314;10.022;2024-03-25T01:02:30;99903.84;;;6.12;100.00
20455;BME280;10386;54.314;10.022;2024-03-25T01:04:56;99899.28;;;6.12;100.00
20455;BME280;10386;54.314;10.022;2024-03-25T01:07:22;99908.34;;;6.11;100.00
20455;BME280;10386;54.314;10.022;2024-03-25T01:09:48;99908.25;;;6.13;100.00
20455;BME280;10386;54.314;10.022;2024-03-25T01:12:14;99904.59;;;6.14;100.00
20455;BME280;10386;54.314;10.022;2024-03-25T01:14:40;99910.00;;;6.14;100.00
20455;BME280;10386;54.314;10.022;2024-03-25T01:17:06;99918.91;;;6.14;100.00
20455;BME280;10386;54.314;10.022;2024-03-25T01:19:31;99913.44;;;6.16;100.00
20455;BME280;10386;54.314;10.022;2024-03-25T01:21:57;99921.72;;;6.13;100.00
20455;BME280;10386;54.314;10.022;2024-03-25T01:24:23;99915.38;;;6.14;100.00
20455;BME280;10386;54.314;10.022;2024-03-25T01:26:49;99916.34;;;6.13;100.00
20455;BME280;10386;54.314;10.022;2024-03-25T01:29:15;99930.78;;;6.12;100.00
20455;BME280;10386;54.314;10.022;2024-03-25T01:31:41;99930.03;;;6.10;100.00
20455;BME280;10386;54.314;10.022;2024-03-25T01:34:06;99924.31;;;6.14;100.00
20455;BME280;10386;54.314;10.022;2024-03-25T01:36:32;99923.53;;;6.12;100.00
20455;BME280;10386;54.314;10.022;2024-03-25T01:38:58;99929.59;;;6.16;100.00
20455;BME280;10386;54.314;10.022;2024-03-25T01:41:24;99936.94;;;6.14;100.00
20455;BME280;10386;54.314;10.022;2024-03-25T01:43:50;99935.75;;;6.18;100.00
20455;BME280;10386;54.314;10.022;2024-03-25T01:46:20;99945.56;;;6.19;100.00
20455;BME280;10386;54.314;10.022;2024-03-25T01:48:48;99945.84;;;6.14;100.00
20455;BME280;10386;54.314;10.022;2024-03-25T01:51:16;99942.97;;;6.17;100.00
20455;BME280;10386;54.314;10.022;2024-03-25T01:53:43;99932.31;;;6.16;100.00
20455;BME280;10386;54.314;10.022;2024-03-25T01:56:11;99937.47;;;6.19;100.00
20455;BME280;10386;54.314;10.022;2024-03-25T01:58:37;99945.56;;;6.19;100.00
20455;BME280;10386;54.314;10.022;2024-03-25T02:01:04;99947.38;;;6.18;100.00
20455;BME280;10386;54.314;10.022;2024-03-25T02:03:30;99940.19;;;6.19;100.00
20455;BME280;10386;54.314;10.022;2024-03-25T02:06:03;99942.09;;;6.17;100.00
20455;BME280;10386;54.314;10.022;2024-03-25T02:08:32;99946.97;;;6.24;100.00
20455;BME280;10386;54.314;10.022;2024-03-25T02:10:59;99947.72;;;6.26;100.00
20455;BME280;10386;54.314;10.022;2024-03-25T02:13:25;99957.84;;;6.23;100.00
20455;BME280;10386;54.314;10.022;2024-03-25T02:15:51;99964.22;;;6.22;100.00
20455;BME280;10386;54.314;10.022;2024-03-25T02:18:17;99960.84;;;6.18;100.00
20455;BME280;10386;54.314;10.022;2024-03-25T02:20:44;99965.03;;;6.10;100.00
20455;BME280;10386;54.314;10.022;2024-03-25T02:23:11;99958.13;;;6.06;100.00
20455;BME280;10386;54.314;10.022;2024-03-25T02:25:38;99965.47;;;6.04;100.00
20455;BME280;10386;54.314;10.022;2024-03-25T02:28:06;99965.47;;;6.04;100.00
20455;BME280;10386;54.314;10.022;2024-03-25T02:30:32;99963.59;;;6.04;100.00
20455;BME280;10386;54.314;10.022;2024-03-25T02:32:58;99963.59;;;6.04;100.00
20455;BME280;10386;54.314;10.022;2024-03-25T02:35:25;99966.00;;;6.09;100.00
20455;BME280;10386;54.314;10.022;2024-03-25T02:37:53;99970.63;;;6.07;100.00
20455;BME280;10386;54.314;10.022;2024-03-25T02:40:20;99965.13;;;6.08;100.00
20455;BME280;10386;54.314;10.022;2024-03-25T02:42:49;99968.72;;;6.09;100.00
20455;BME280;10386;54.314;10.022;2024-03-25T02:45:15;99974.28;;;6.06;100.00
20455;BME280;10386;54.314;10.022;2024-03-25T02:47:41;99966.84;;;6.09;100.00
20455;BME280;10386;54.314;10.022;2024-03-25T02:50:07;99978.50;;;6.10;100.00
20455;BME280;10386;54.314;10.022;2024-03-25T02:52:33;99977.56;;;6.11;100.00
20455;BME280;10386;54.314;10.022;2024-03-25T02:54:59;99982.06;;;6.10;100.00
20455;BME280;10386;54.314;10.022;2024-03-25T02:57:25;99979.28;;;6.12;100.00
20455;BME280;10386;54.314;10.022;2024-03-25T02:59:51;99989.50;;;6.07;100.00
20455;BME280;10386;54.314;10.022;2024-03-25T03:02:16;100002.84;;;6.08;100.00
20455;BME280;10386;54.314;10.022;2024-03-25T03:04:42;99992.94;;;6.09;100.00
20455;BME280;10386;54.314;10.022;2024-03-25T03:07:08;100002.97;;;6.07;100.00
20455;BME280;10386;54.314;10.022;2024-03-25T03:09:35;100005.47;;;6.10;100.00
20455;BME280;10386;54.314;10.022;2024-03-25T03:12:00;100004.97;;;6.03;100.00
20455;BME280;10386;54.314;10.022;2024-03-25T03:14:26;100009.53;;;6.03;100.00
20455;BME280;10386;54.314;10.022;2024-03-25T03:16:52;100005.19;;;6.00;100.00
20455;BME280;10386;54.314;10.022;2024-03-25T03:19:21;100011.53;;;5.99;100.00
20455;BME280;10386;54.314;10.022;2024-03-25T03:21:47;100017.28;;;6.07;100.00
20455;BME280;10386;54.314;10.022;2024-03-25T03:24:13;100016.63;;;6.04;100.00
20455;BME280;10386;54.314;10.022;2024-03-25T03:26:39;100024.53;;;6.07;100.00
20455;BME280;10386;54.314;10.022;2024-03-25T03:29:04;100027.81;;;5.98;100.00
20455;BME280;10386;54.314;10.022;2024-03-25T03:31:30;100032.31;;;5.97;100.00
20455;BME280;10386;54.314;10.022;2024-03-25T03:33:56;100032.25;;;5.99;100.00
20455;BME280;10386;54.314;10.022;2024-03-25T03:36:22;100032.44;;;5.96;100.00
20455;BME280;10386;54.314;10.022;2024-03-25T03:38:51;100043.50;;;5.91;100.00
20455;BME280;10386;54.314;10.022;2024-03-25T03:41:17;100046.47;;;5.87;100.00
20455;BME280;10386;54.314;10.022;2024-03-25T03:43:43;100053.41;;;5.91;100.00
20455;BME280;10386;54.314;10.022;2024-03-25T03:46:09;100055.44;;;5.87;100.00
20455;BME280;10386;54.314;10.022;2024-03-25T03:48:35;100052.44;;;5.92;100.00
20455;BME280;10386;54.314;10.022;2024-03-25T03:51:01;100057.94;;;5.90;100.00
20455;BME280;10386;54.314;10.022;2024-03-25T03:53:27;100069.66;;;5.89;100.00
20455;BME280;10386;54.314;10.022;2024-03-25T03:55:57;100075.34;;;5.85;100.00
20455;BME280;10386;54.314;10.022;2024-03-25T03:58:24;100079.19;;;5.81;100.00
20455;BME280;10386;54.314;10.022;2024-03-25T04:00:50;100088.34;;;5.78;100.00
20455;BME280;10386;54.314;10.022;2024-03-25T04:03:17;100093.97;;;5.74;100.00
20455;BME280;10386;54.314;10.022;2024-03-25T04:05:43;100098.50;;;5.73;100.00
20455;BME280;10386;54.314;10.022;2024-03-25T04:08:09;100102.25;;;5.71;100.00
20455;BME280;10386;54.314;10.022;2024-03-25T04:10:35;100109.28;;;5.73;100.00
20455;BME280;10386;54.314;10.022;2024-03-25T04:13:03;100111.47;;;5.67;100.00
20455;BME280;10386;54.314;10.022;2024-03-25T04:15:29;100128.72;;;5.64;100.00
20455;BME280;10386;54.314;10.022;2024-03-25T04:17:54;100133.91;;;5.67;100.00
20455;BME280;10386;54.314;10.022;2024-03-25T04:20:21;100147.44;;;5.66;100.00
20455;BME280;10386;54.314;10.022;2024-03-25T04:22:47;100153.13;;;5.61;100.00
20455;BME280;10386;54.314;10.022;2024-03-25T04:25:13;100153.13;;;5.61;100.00
20455;BME280;10386;54.314;10.022;2024-03-25T04:27:42;100165.91;;;5.58;100.00
20455;BME280;10386;54.314;10.022;2024-03-25T04:30:09;100169.47;;;5.58;100.00
20455;BME280;10386;54.314;10.022;2024-03-25T04:32:38;100179.47;;;5.56;100.00
20455;BME280;10386;54.314;10.022;2024-03-25T04:35:04;100185.75;;;5.41;100.00
20455;BME280;10386;54.314;10.022;2024-03-25T04:37:32;100202.59;;;5.45;100.00
20455;BME280;10386;54.314;10.022;2024-03-25T04:39:58;100207.47;;;5.38;100.00
20455;BME280;10386;54.314;10.022;2024-03-25T04:42:24;100210.72;;;5.30;100.00
20455;BME280;10386;54.314;10.022;2024-03-25T04:44:50;100230.81;;;5.24;100.00
20455;BME280;10386;54.314;10.022;2024-03-25T04:47:19;100229.25;;;5.20;100.00
20455;BME280;10386;54.314;10.022;2024-03-25T04:49:46;100234.03;;;5.15;100.00
20455;BME280;10386;54.314;10.022;2024-03-25T04:52:12;100236.97;;;5.11;100.00
20455;BME280;10386;54.314;10.022;2024-03-25T04:54:49;100245.78;;;4.99;100.00
20455;BME280;10386;54.314;10.022;2024-03-25T04:57:15;100254.19;;;4.93;100.00
20455;BME280;10386;54.314;10.022;2024-03-25T04:59:40;100254.53;;;4.87;100.00
20455;BME280;10386;54.314;10.022;2024-03-25T05:02:06;100254.97;;;4.79;100.00
20455;BME280;10386;54.314;10.022;2024-03-25T05:04:32;100258.97;;;4.72;100.00
20455;BME280;10386;54.314;10.022;2024-03-25T05:06:58;100266.66;;;4.63;100.00
20455;BME280;10386;54.314;10.022;2024-03-25T05:09:24;100273.84;;;4.47;100.00
20455;BME280;10386;54.314;10.022;2024-03-25T05:11:50;100284.09;;;4.40;100.00
20455;BME280;10386;54.314;10.022;2024-03-25T05:14:16;100291.53;;;4.51;100.00
20455;BME280;10386;54.314;10.022;2024-03-25T05:16:41;100292.31;;;4.53;100.00
20455;BME280;10386;54.314;10.022;2024-03-25T05:19:07;100294.00;;;4.55;100.00
20455;BME280;10386;54.314;10.022;2024-03-25T05:21:33;100291.13;;;4.58;100.00
20455;BME280;10386;54.314;10.022;2024-03-25T05:23:59;100293.22;;;4.69;100.00
20455;BME280;10386;54.314;10.022;2024-03-25T05:26:25;100280.13;;;4.78;100.00
20455;BME280;10386;54.314;10.022;2024-03-25T05:28:55;100285.09;;;4.86;100.00
20455;BME280;10386;54.314;10.022;2024-03-25T05:31:21;100285.50;;;4.94;100.00
20455;BME280;10386;54.314;10.022;2024-03-25T05:33:47;100280.63;;;5.00;100.00
20455;BME280;10386;54.314;10.022;2024-03-25T05:36:13;100284.56;;;5.10;100.00
20455;BME280;10386;54.314;10.022;2024-03-25T05:38:39;100286.28;;;5.11;100.00
20455;BME280;10386;54.314;10.022;2024-03-25T05:41:05;100284.69;;;5.23;100.00
20455;BME280;10386;54.314;10.022;2024-03-25T05:43:31;100277.03;;;5.31;100.00
20455;BME280;10386;54.314;10.022;2024-03-25T05:45:57;100285.03;;;5.32;100.00
20455;BME280;10386;54.314;10.022;2024-03-25T05:48:27;100283.97;;;5.35;100.00
20455;BME280;10386;54.314;10.022;2024-03-25T05:51:06;100290.06;;;5.38;100.00
20455;BME280;10386;54.314;10.022;2024-03-25T05:53:35;100291.50;;;5.43;100.00
20455;BME280;10386;54.314;10.022;2024-03-25T05:56:01;100291.25;;;5.48;100.00
20455;BME280;10386;54.314;10.022;2024-03-25T05:58:27;100276.38;;;5.56;100.00
20455;BME280;10386;54.314;10.022;2024-03-25T06:00:54;100282.44;;;5.60;100.00
20455;BME280;10386;54.314;10.022;2024-03-25T06:03:20;100287.56;;;5.64;100.00
20455;BME280;10386;54.314;10.022;2024-03-25T06:05:46;100289.59;;;5.75;100.00
20455;BME280;10386;54.314;10.022;2024-03-25T06:08:12;100299.75;;;5.85;100.00
20455;BME280;10386;54.314;10.022;2024-03-25T06:10:50;100308.44;;;5.90;100.00
20455;BME280;10386;54.314;10.022;2024-03-25T06:13:19;100309.56;;;5.86;100.00
20455;BME280;10386;54.314;10.022;2024-03-25T06:15:46;100308.78;;;5.84;100.00
20455;BME280;10386;54.314;10.022;2024-03-25T06:18:13;100308.69;;;5.86;100.00
20455;BME280;10386;54.314;10.022;2024-03-25T06:20:39;100321.97;;;5.89;100.00
20455;BME280;10386;54.314;10.022;2024-03-25T06:23:05;100314.66;;;5.91;100.00
20455;BME280;10386;54.314;10.022;2024-03-25T06:25:30;100317.72;;;5.85;100.00
20455;BME280;10386;54.314;10.022;2024-03-25T06:27:57;100319.09;;;5.92;100.00
20455;BME280;10386;54.314;10.022;2024-03-25T06:30:23;100317.28;;;5.92;100.00
20455;BME280;10386;54.314;10.022;2024-03-25T06:33:07;100318.63;;;5.85;100.00
20455;BME280;10386;54.314;10.022;2024-03-25T06:35:51;100327.16;;;5.92;100.00
20455;BME280;10386;54.314;10.022;2024-03-25T06:38:20;100329.22;;;6.02;100.00
20455;BME280;10386;54.314;10.022;2024-03-25T06:40:46;100335.31;;;6.06;100.00
20455;BME280;10386;54.314;10.022;2024-03-25T06:43:12;100338.66;;;6.09;100.00
20455;BME280;10386;54.314;10.022;2024-03-25T06:45:38;100342.91;;;6.13;100.00
20455;BME280;10386;54.314;10.022;2024-03-25T06:48:04;100345.81;;;6.24;100.00
20455;BME280;10386;54.314;10.022;2024-03-25T06:50:30;100346.22;;;6.32;100.00
20455;BME280;10386;54.314;10.022;2024-03-25T06:52:56;100355.56;;;6.41;100.00
20455;BME280;10386;54.314;10.022;2024-03-25T06:55:22;100370.78;;;6.42;100.00
20455;BME280;10386;54.314;10.022;2024-03-25T06:57:53;100372.53;;;6.57;100.00
20455;BME280;10386;54.314;10.022;2024-03-25T07:00:19;100375.41;;;6.54;100.00
20455;BME280;10386;54.314;10.022;2024-03-25T07:02:46;100383.88;;;6.48;100.00
20455;BME280;10386;54.314;10.022;2024-03-25T07:05:11;100389.66;;;6.42;100.00
20455;BME280;10386;54.314;10.022;2024-03-25T07:07:37;100391.31;;;6.44;100.00
20455;BME280;10386;54.314;10.022;2024-03-25T07:10:03;100400.75;;;6.51;100.00
20455;BME280;10386;54.314;10.022;2024-03-25T07:12:29;100402.69;;;6.49;100.00
20455;BME280;10386;54.314;10.022;2024-03-25T07:14:55;100407.38;;;6.46;100.00
20455;BME280;10386;54.314;10.022;2024-03-25T07:17:21;100411.16;;;6.57;100.00
20455;BME280;10386;54.314;10.022;2024-03-25T07:19:47;100426.44;;;6.43;100.00
20455;BME280;10386;54.314;10.022;2024-03-25T07:22:13;100415.47;;;6.60;100.00
20455;BME280;10386;54.314;10.022;2024-03-25T07:24:39;100414.13;;;6.53;100.00
20455;BME280;10386;54.314;10.022;2024-03-25T07:27:05;100416.63;;;6.56;100.00
20455;BME280;10386;54.314;10.022;2024-03-25T07:29:31;100422.94;;;6.70;100.00
20455;BME280;10386;54.314;10.022;2024-03-25T07:31:57;100417.81;;;6.79;100.00
20455;BME280;10386;54.314;10.022;2024-03-25T07:34:23;100423.00;;;6.69;100.00
20455;BME280;10386;54.314;10.022;2024-03-25T07:36:49;100420.69;;;6.63;100.00
20455;BME280;10386;54.314;10.022;2024-03-25T07:39:16;100350.88;;;6.72;100.00
20455;BME280;10386;54.314;10.022;2024-03-25T07:41:42;100354.03;;;7.06;100.00
20455;BME280;10386;54.314;10.022;2024-03-25T07:44:08;100356.94;;;7.44;100.00
20455;BME280;10386;54.314;10.022;2024-03-25T07:46:34;100350.66;;;7.70;100.00
20455;BME280;10386;54.314;10.022;2024-03-25T07:49:00;100391.91;;;7.45;100.00
20455;BME280;10386;54.314;10.022;2024-03-25T07:51:26;100407.19;;;7.32;100.00
20455;BME280;10386;54.314;10.022;2024-03-25T07:53:52;100411.59;;;7.47;100.00
20455;BME280;10386;54.314;10.022;2024-03-25T07:56:17;100425.44;;;7.55;100.00
20455;BME280;10386;54.314;10.022;2024-03-25T07:58:44;100434.88;;;7.76;100.00
20455;BME280;10386;54.314;10.022;2024-03-25T08:01:10;100443.06;;;7.75;100.00
20455;BME280;10386;54.314;10.022;2024-03-25T08:03:36;100453.09;;;7.73;100.00
20455;BME280;10386;54.314;10.022;2024-03-25T08:06:02;100465.88;;;7.57;100.00
20455;BME280;10386;54.314;10.022;2024-03-25T08:08:29;100473.50;;;7.50;100.00
20455;BME280;10386;54.314;10.022;2024-03-25T08:10:54;100491.63;;;7.48;100.00
20455;BME280;10386;54.314;10.022;2024-03-25T08:13:21;100489.69;;;7.64;100.00
20455;BME280;10386;54.314;10.022;2024-03-25T08:15:47;100496.66;;;7.68;100.00
20455;BME280;10386;54.314;10.022;2024-03-25T08:18:13;100500.28;;;8.08;100.00
20455;BME280;10386;54.314;10.022;2024-03-25T08:20:39;100504.44;;;8.66;100.00
20455;BME280;10386;54.314;10.022;2024-03-25T08:23:04;100526.66;;;8.44;100.00
20455;BME280;10386;54.314;10.022;2024-03-25T08:25:31;100541.91;;;8.45;100.00
20455;BME280;10386;54.314;10.022;2024-03-25T08:27:57;100560.72;;;8.07;100.00
20455;BME280;10386;54.314;10.022;2024-03-25T08:30:24;100578.06;;;7.76;100.00
20455;BME280;10386;54.314;10.022;2024-03-25T08:32:50;100585.78;;;7.54;100.00
20455;BME280;10386;54.314;10.022;2024-03-25T08:35:17;100593.09;;;7.52;100.00
20455;BME280;10386;54.314;10.022;2024-03-25T08:37:42;100596.38;;;7.57;100.00
20455;BME280;10386;54.314;10.022;2024-03-25T08:40:09;100598.72;;;7.91;100.00
20455;BME280;10386;54.314;10.022;2024-03-25T08:42:35;100613.88;;;7.66;100.00
20455;BME280;10386;54.314;10.022;2024-03-25T08:45:01;100619.53;;;7.61;100.00
20455;BME280;10386;54.314;10.022;2024-03-25T08:47:27;100629.16;;;7.37;100.00
20455;BME280;10386;54.314;10.022;2024-03-25T08:49:53;100636.13;;;7.41;100.00
20455;BME280;10386;54.314;10.022;2024-03-25T08:52:18;100640.84;;;7.38;100.00
20455;BME280;10386;54.314;10.022;2024-03-25T08:54:44;100648.47;;;7.45;100.00
20455;BME280;10386;54.314;10.022;2024-03-25T08:57:10;100641.97;;;7.77;100.00
20455;BME280;10386;54.314;10.022;2024-03-25T08:59:36;100652.66;;;7.93;100.00
20455;BME280;10386;54.314;10.022;2024-03-25T09:02:02;100659.41;;;8.00;100.00
20455;BME280;10386;54.314;10.022;2024-03-25T09:04:27;100675.53;;;7.87;100.00
20455;BME280;10386;54.314;10.022;2024-03-25T09:06:53;100682.56;;;7.90;100.00
20455;BME280;10386;54.314;10.022;2024-03-25T09:09:19;100680.00;;;7.88;100.00
20455;BME280;10386;54.314;10.022;2024-03-25T09:12:04;100688.16;;;8.01;100.00
20455;BME280;10386;54.314;10.022;2024-03-25T09:14:31;100696.41;;;7.99;100.00
20455;BME280;10386;54.314;10.022;2024-03-25T09:16:57;100712.09;;;7.79;100.00
20455;BME280;10386;54.314;10.022;2024-03-25T09:19:23;100715.69;;;7.79;100.00
20455;BME280;10386;54.314;10.022;2024-03-25T09:21:49;100713.38;;;8.01;100.00
20455;BME280;10386;54.314;10.022;2024-03-25T09:24:15;100724.75;;;7.78;100.00
20455;BME280;10386;54.314;10.022;2024-03-25T09:26:41;100729.69;;;7.86;100.00
20455;BME280;10386;54.314;10.022;2024-03-25T09:29:06;100739.72;;;7.84;100.00
20455;BME280;10386;54.314;10.022;2024-03-25T09:31:33;100730.38;;;8.03;100.00
20455;BME280;10386;54.314;10.022;2024-03-25T09:33:58;100748.13;;;7.79;100.00
20455;BME280;10386;54.314;10.022;2024-03-25T09:36:24;100763.41;;;8.08;100.00
20455;BME280;10386;54.314;10.022;2024-03-25T09:38:50;100759.94;;;8.48;100.00
20455;BME280;10386;54.314;10.022;2024-03-25T09:41:19;100766.81;;;8.67;100.00
20455;BME280;10386;54.314;10.022;2024-03-25T09:43:48;100777.25;;;8.45;100.00
20455;BME280;10386;54.314;10.022;2024-03-25T09:46:16;100784.97;;;8.65;100.00
20455;BME280;10386;54.314;10.022;2024-03-25T09:48:42;100791.84;;;8.71;100.00
20455;BME280;10386;54.314;10.022;2024-03-25T09:51:11;100787.13;;;9.01;100.00
20455;BME280;10386;54.314;10.022;2024-03-25T09:53:37;100802.53;;;9.00;100.00
20455;BME280;10386;54.314;10.022;2024-03-25T09:56:04;100823.34;;;8.72;100.00
20455;BME280;10386;54.314;10.022;2024-03-25T09:58:30;100834.53;;;8.24;100.00
20455;BME280;10386;54.314;10.022;2024-03-25T10:00:58;100840.63;;;7.98;100.00
20455;BME280;10386;54.314;10.022;2024-03-25T10:03:24;100842.81;;;7.92;100.00
20455;BME280;10386;54.314;10.022;2024-03-25T10:05:50;100853.72;;;7.90;100.00
20455;BME280;10386;54.314;10.022;2024-03-25T10:08:22;100847.00;;;7.97;100.00
20455;BME280;10386;54.314;10.022;2024-03-25T10:10:49;100853.41;;;8.10;100.00
20455;BME280;10386;54.314;10.022;2024-03-25T10:13:16;100851.84;;;8.49;100.00
20455;BME280;10386;54.314;10.022;2024-03-25T10:15:42;100851.56;;;8.96;100.00
20455;BME280;10386;54.314;10.022;2024-03-25T10:18:11;100863.72;;;8.47;100.00
20455;BME280;10386;54.314;10.022;2024-03-25T10:20:37;100860.53;;;8.68;100.00
20455;BME280;10386;54.314;10.022;2024-03-25T10:23:03;100876.06;;;8.37;100.00
20455;BME280;10386;54.314;10.022;2024-03-25T10:25:31;100885.53;;;8.30;100.00
20455;BME280;10386;54.314;10.022;2024-03-25T10:28:01;100879.56;;;8.39;100.00
20455;BME280;10386;54.314;10.022;2024-03-25T10:30:27;100881.22;;;8.41;100.00
20455;BME280;10386;54.314;10.022;2024-03-25T10:33:01;100887.22;;;8.46;100.00
20455;BME280;10386;54.314;10.022;2024-03-25T10:35:27;100873.88;;;8.85;100.00
20455;BME280;10386;54.314;10.022;2024-03-25T10:37:59;100885.50;;;8.73;100.00
20455;BME280;10386;54.314;10.022;2024-03-25T10:40:29;100889.28;;;8.71;100.00
20455;BME280;10386;54.314;10.022;2024-03-25T10:43:00;100883.00;;;8.98;100.00
20455;BME280;10386;54.314;10.022;2024-03-25T10:45:30;100885.50;;;9.01;100.00
20455;BME280;10386;54.314;10.022;2024-03-25T10:48:09;100879.31;;;8.99;100.00
20455;BME280;10386;54.314;10.022;2024-03-25T10:50:39;100871.03;;;9.29;100.00
20455;BME280;10386;54.314;10.022;2024-03-25T10:53:08;100879.66;;;9.21;100.00
20455;BME280;10386;54.314;10.022;2024-03-25T10:55:36;100884.13;;;9.22;100.00
20455;BME280;10386;54.314;10.022;2024-03-25T10:58:04;100887.28;;;9.29;100.00
20455;BME280;10386;54.314;10.022;2024-03-25T11:00:31;100892.56;;;8.90;100.00
20455;BME280;10386;54.314;10.022;2024-03-25T11:02:59;100893.31;;;9.06;100.00
20455;BME280;10386;54.314;10.022;2024-03-25T11:05:25;100903.34;;;9.18;100.00
20455;BME280;10386;54.314;10.022;2024-03-25T11:07:51;100900.38;;;9.08;100.00
20455;BME280;10386;54.314;10.022;2024-03-25T11:10:17;100894.94;;;9.62;100.00
20455;BME280;10386;54.314;10.022;2024-03-25T11:12:43;100905.22;;;9.17;100.00
20455;BME280;10386;54.314;10.022;2024-03-25T11:15:11;100903.56;;;8.59;100.00
20455;BME280;10386;54.314;10.022;2024-03-25T11:17:37;100919.63;;;8.62;100.00
20455;BME280;10386;54.314;10.022;2024-03-25T11:20:15;100912.34;;;8.48;100.00
20455;BME280;10386;54.314;10.022;2024-03-25T11:22:52;100909.75;;;8.89;100.00
20455;BME280;10386;54.314;10.022;2024-03-25T11:25:20;100908.22;;;8.85;100.00
20455;BME280;10386;54.314;10.022;2024-03-25T11:27:47;100906.47;;;8.98;100.00
20455;BME280;10386;54.314;10.022;2024-03-25T11:30:14;100906.53;;;9.38;100.00
20455;BME280;10386;54.314;10.022;2024-03-25T11:32:46;100892.91;;;9.12;100.00
20455;BME280;10386;54.314;10.022;2024-03-25T11:35:12;100901.75;;;9.01;100.00
20455;BME280;10386;54.314;10.022;2024-03-25T11:37:42;100895.25;;;9.58;100.00
20455;BME280;10386;54.314;10.022;2024-03-25T11:40:09;100892.81;;;9.67;100.00
20455;BME280;10386;54.314;10.022;2024-03-25T11:42:41;100884.66;;;9.94;100.00
20455;BME280;10386;54.314;10.022;2024-03-25T11:45:19;100880.47;;;10.41;100.00
20455;BME280;10386;54.314;10.022;2024-03-25T11:47:47;100880.66;;;10.88;100.00
20455;BME280;10386;54.314;10.022;2024-03-25T11:50:14;100876.56;;;10.70;100.00
20455;BME280;10386;54.314;10.022;2024-03-25T11:52:41;100886.44;;;10.46;100.00
20455;BME280;10386;54.314;10.022;2024-03-25T11:55:08;100881.41;;;9.62;100.00
20455;BME280;10386;54.314;10.022;2024-03-25T11:57:38;100883.28;;;9.48;100.00
20455;BME280;10386;54.314;10.022;2024-03-25T12:00:04;100890.19;;;9.66;100.00
20455;BME280;10386;54.314;10.022;2024-03-25T12:02:32;100883.94;;;9.52;100.00
20455;BME280;10386;54.314;10.022;2024-03-25T12:04:58;100881.00;;;9.68;100.00
20455;BME280;10386;54.314;10.022;2024-03-25T12:07:24;100885.16;;;9.20;100.00
20455;BME280;10386;54.314;10.022;2024-03-25T12:09:50;100876.78;;;9.10;100.00
20455;BME280;10386;54.314;10.022;2024-03-25T12:12:34;100877.75;;;8.81;100.00
20455;BME280;10386;54.314;10.022;2024-03-25T12:15:05;100880.47;;;8.95;100.00
20455;BME280;10386;54.314;10.022;2024-03-25T12:17:33;100881.94;;;9.41;100.00
20455;BME280;10386;54.314;10.022;2024-03-25T12:20:04;100875.19;;;10.13;100.00
20455;BME280;10386;54.314;10.022;2024-03-25T12:22:31;100858.41;;;10.33;100.00
20455;BME280;10386;54.314;10.022;2024-03-25T12:24:59;100850.28;;;10.58;100.00
20455;BME280;10386;54.314;10.022;2024-03-25T12:27:26;100846.38;;;10.75;100.00
20455;BME280;10386;54.314;10.022;2024-03-25T12:30:05;100848.75;;;10.54;100.00
20455;BME280;10386;54.314;10.022;2024-03-25T12:35:02;100838.22;;;10.50;100.00
20455;BME280;10386;54.314;10.022;2024-03-25T12:37:29;100842.78;;;10.49;100.00
20455;BME280;10386;54.314;10.022;2024-03-25T12:39:56;100845.81;;;9.93;100.00
20455;BME280;10386;54.314;10.022;2024-03-25T12:42:24;100852.75;;;9.97;100.00
20455;BME280;10386;54.314;10.022;2024-03-25T12:44:53;100856.84;;;9.78;100.00